Time;durP1;ratioP1;P1;durP2;ratioP2;P2;SDS_P1;SDS_P2;PMS_P1;PMS_P2;Temp;Humidity;BMP_temperature;BMP_pressure;BME280_temperature;BME280_humidity;BME280_pressure;Samples;Min_cycle;Max_cycle;Signal;HPM_P1;HPM_P2
2021/12/11 00:01:38;;;;;;;;;;;;;;;27.34;66.31;96119.84;609042;233;65089;-69
2021/12/11 00:04:02;;;;;;;;;;;;;;;27.32;67.67;96117.47;608835;233;67213;-70
2021/12/11 00:06:34;;;;;;;;;;;;;;;27.32;67.37;96116.69;609134;233;65030;-70
2021/12/11 00:09:03;;;;;;;;;;;;;;;27.31;63.17;96115.09;609126;233;62954;-71
2021/12/11 00:11:32;;;;;;;;;;;;;;;27.32;67.33;96119.39;608697;233;66798;-71
2021/12/11 00:14:01;;;;;;;;;;;;;;;27.29;65.60;96128.93;609098;233;66976;-71
2021/12/11 00:16:30;;;;;;;;;;;;;;;27.30;65.58;96135.11;609105;233;62785;-70
2021/12/11 00:19:05;;;;;;;;;;;;;;;27.28;66.98;96148.13;609113;233;64478;-71
2021/12/11 00:21:32;;;;;;;;;;;;;;;27.26;66.45;96156.58;609162;233;66796;-69
2021/12/11 00:24:01;;;;;;;;;;;;;;;27.26;66.03;96170.06;609115;233;65032;-69
2021/12/11 00:26:39;;;;;;;;;;;;;;;27.26;62.11;96159.27;609015;233;66833;-69
2021/12/11 00:29:09;;;;;;;;;;;;;;;27.25;62.29;96157.68;609127;233;64503;-69
2021/12/11 00:31:38;;;;;;;;;;;;;;;27.27;64.41;96160.06;609103;233;65147;-69
2021/12/11 00:34:07;;;;;;;;;;;;;;;27.25;65.80;96148.80;609096;233;66606;-69
2021/12/11 00:36:34;;;;;;;;;;;;;;;27.23;63.38;96155.33;609082;232;66773;-69
2021/12/11 00:39:04;;;;;;;;;;;;;;;27.24;66.55;96158.81;609125;233;62907;-69
2021/12/11 00:41:33;;;;;;;;;;;;;;;27.20;66.05;96165.97;608873;233;64162;-70
2021/12/11 00:44:01;;;;;;;;;;;;;;;27.19;66.67;96167.89;609135;233;66288;-69
2021/12/11 00:46:30;;;;;;;;;;;;;;;27.21;62.04;96160.27;609078;233;63027;-70
2021/12/11 00:49:11;;;;;;;;;;;;;;;27.19;64.98;96162.50;609114;233;66893;-69
2021/12/11 00:51:39;;;;;;;;;;;;;;;27.19;60.53;96170.59;609110;233;67025;-69
2021/12/11 00:54:07;;;;;;;;;;;;;;;27.20;63.07;96158.70;609907;232;64848;-69
2021/12/11 00:56:36;;;;;;;;;;;;;;;27.19;66.49;96159.80;610470;232;66832;-69
2021/12/11 00:59:05;;;;;;;;;;;;;;;27.15;65.18;96158.87;610432;232;64700;-68
2021/12/11 01:01:35;;;;;;;;;;;;;;;27.15;65.74;96161.56;610477;232;64854;-68
2021/12/11 01:04:03;;;;;;;;;;;;;;;27.15;65.02;96158.87;610511;232;66749;-69
2021/12/11 01:06:35;;;;;;;;;;;;;;;27.13;64.41;96153.01;610442;232;69696;-69
2021/12/11 01:09:04;;;;;;;;;;;;;;;27.13;62.58;96163.02;610496;232;63021;-61
2021/12/11 01:11:36;;;;;;;;;;;;;;;27.11;65.39;96160.64;610077;232;64402;-61
2021/12/11 01:14:15;;;;;;;;;;;;;;;27.09;62.48;96168.30;610485;232;64359;-61
2021/12/11 01:16:40;;;;;;;;;;;;;;;27.10;60.98;96167.16;610241;232;65001;-61
2021/12/11 01:19:16;;;;;;;;;;;;;;;27.11;65.37;96176.03;610539;232;67061;-61
2021/12/11 01:24:27;;;;;;;;;;;;;;;27.08;63.42;96184.79;610431;232;62950;-61
2021/12/11 01:26:45;;;;;;;;;;;;;;;27.07;59.80;96175.92;609881;232;64662;-62
2021/12/11 01:29:13;;;;;;;;;;;;;;;27.08;64.40;96169.39;610487;232;67434;-62
2021/12/11 01:31:41;;;;;;;;;;;;;;;27.06;62.79;96162.75;610458;232;63024;-62
2021/12/11 01:34:10;;;;;;;;;;;;;;;27.05;62.59;96167.36;610520;232;64637;-71
2021/12/11 01:36:39;;;;;;;;;;;;;;;27.03;64.29;96161.50;610361;232;66930;-62
2021/12/11 01:39:08;;;;;;;;;;;;;;;27.03;66.77;96149.94;610475;232;62817;-62
2021/12/11 01:41:35;;;;;;;;;;;;;;;27.01;64.22;96156.45;610481;232;65342;-62
2021/12/11 01:44:04;;;;;;;;;;;;;;;27.01;64.38;96155.67;610491;232;66607;-62
2021/12/11 01:46:32;;;;;;;;;;;;;;;27.02;63.05;96162.63;610429;232;62910;-62
2021/12/11 01:49:01;;;;;;;;;;;;;;;27.00;61.98;96159.47;610447;232;64618;-62
2021/12/11 01:51:31;;;;;;;;;;;;;;;26.99;64.41;96158.69;610407;232;66749;-60
2021/12/11 01:54:00;;;;;;;;;;;;;;;26.97;63.92;96155.52;610434;232;65082;-70
2021/12/11 01:56:29;;;;;;;;;;;;;;;26.98;65.08;96150.91;610276;230;66734;-69
2021/12/11 01:58:59;;;;;;;;;;;;;;;26.97;64.62;96152.05;610470;232;66593;-70
2021/12/11 02:01:28;;;;;;;;;;;;;;;26.96;64.18;96145.09;610473;232;62830;-70
2021/12/11 02:03:56;;;;;;;;;;;;;;;26.96;66.00;96145.09;610384;232;66708;-70
2021/12/11 02:06:25;;;;;;;;;;;;;;;26.92;63.31;96141.46;610448;232;67086;-70
2021/12/11 02:08:52;;;;;;;;;;;;;;;26.93;64.49;96134.97;610462;232;62666;-61
2021/12/11 02:11:22;;;;;;;;;;;;;;;26.92;65.46;96125.28;610448;232;66954;-61
2021/12/11 02:13:57;;;;;;;;;;;;;;;26.89;64.98;96117.86;610479;232;67456;-60
2021/12/11 02:16:27;;;;;;;;;;;;;;;26.89;65.00;96126.73;610253;232;64888;-62
2021/12/11 02:18:57;;;;;;;;;;;;;;;26.89;61.89;96134.82;610450;232;64585;-70
2021/12/11 02:21:29;;;;;;;;;;;;;;;26.88;64.57;96125.16;610517;232;66741;-69
2021/12/11 02:24:03;;;;;;;;;;;;;;;26.86;67.17;96118.53;610552;230;65101;-68
2021/12/11 02:26:35;;;;;;;;;;;;;;;26.83;63.44;96125.36;610474;232;66491;-70
2021/12/11 02:29:10;;;;;;;;;;;;;;;26.83;66.09;96111.10;610509;232;66634;-69
2021/12/11 02:31:54;;;;;;;;;;;;;;;26.82;64.89;96101.42;610481;232;63603;-70
2021/12/11 02:34:24;;;;;;;;;;;;;;;26.80;64.58;96107.16;610310;232;64785;-69
2021/12/11 02:36:56;;;;;;;;;;;;;;;26.80;64.14;96093.69;610482;232;64757;-70
2021/12/11 02:39:31;;;;;;;;;;;;;;;26.78;66.59;96104.78;610367;232;64880;-60
2021/12/11 02:42:06;;;;;;;;;;;;;;;26.76;65.20;96096.26;610505;232;65431;-69
2021/12/11 02:44:35;;;;;;;;;;;;;;;26.76;66.60;96096.26;610424;232;66622;-69
2021/12/11 02:47:13;;;;;;;;;;;;;;;26.78;63.33;96099.39;610503;232;64973;-69
2021/12/11 02:49:42;;;;;;;;;;;;;;;26.75;67.10;96110.84;610450;232;64539;-69
2021/12/11 02:52:12;;;;;;;;;;;;;;;26.73;66.64;96123.06;610450;232;69041;-70
2021/12/11 02:54:43;;;;;;;;;;;;;;;26.71;66.28;96131.50;609138;232;62915;-69
2021/12/11 02:57:12;;;;;;;;;;;;;;;26.71;66.75;96134.19;609092;233;66875;-70
2021/12/11 02:59:43;;;;;;;;;;;;;;;26.70;64.47;96124.51;608883;233;66779;-70
2021/12/11 03:02:11;;;;;;;;;;;;;;;26.70;63.58;96121.81;609044;232;66093;-70
2021/12/11 03:04:48;;;;;;;;;;;;;;;26.67;65.39;96110.91;609104;233;66902;-69
2021/12/11 03:07:13;;;;;;;;;;;;;;;26.67;67.77;96119.78;608725;233;66792;-70
2021/12/11 03:09:41;;;;;;;;;;;;;;;26.66;66.49;96120.91;609164;233;63034;-69
2021/12/11 03:12:10;;;;;;;;;;;;;;;26.66;69.12;96120.91;609137;233;67291;-69
2021/12/11 03:14:38;;;;;;;;;;;;;;;26.63;69.78;96113.48;609144;233;64846;-70
2021/12/11 03:17:05;;;;;;;;;;;;;;;26.64;67.88;96114.27;609142;233;62881;-70
2021/12/11 03:19:34;;;;;;;;;;;;;;;26.63;69.60;96113.48;609154;233;64269;-70
2021/12/11 03:22:03;;;;;;;;;;;;;;;26.62;68.07;96121.89;609163;233;64611;-70
2021/12/11 03:24:33;;;;;;;;;;;;;;;26.60;68.14;96143.80;609138;233;62994;-69
2021/12/11 03:27:00;;;;;;;;;;;;;;;26.60;69.65;96130.31;609113;233;64424;-69
2021/12/11 03:29:28;;;;;;;;;;;;;;;26.57;64.83;96112.09;609125;233;64333;-69
2021/12/11 03:31:55;;;;;;;;;;;;;;;26.58;69.03;96112.91;609125;233;63046;-69
2021/12/11 03:34:24;;;;;;;;;;;;;;;26.57;65.65;96117.48;609119;233;64392;-69
2021/12/11 03:36:52;;;;;;;;;;;;;;;26.57;69.28;96109.39;609177;233;64710;-70
2021/12/11 03:39:27;;;;;;;;;;;;;;;26.54;69.25;96110.84;609165;233;62976;-70
2021/12/11 03:41:56;;;;;;;;;;;;;;;26.56;70.42;96105.13;609094;233;66723;-69
2021/12/11 03:44:28;;;;;;;;;;;;;;;26.54;69.66;96094.67;609113;233;66780;-69
2021/12/11 03:46:54;;;;;;;;;;;;;;;26.52;67.84;96096.14;609020;232;65024;-69
2021/12/11 03:49:22;;;;;;;;;;;;;;;26.51;68.79;96083.77;609122;233;65064;-69
2021/12/11 03:51:51;;;;;;;;;;;;;;;26.49;69.08;96084.09;609102;233;66812;-69
2021/12/11 03:54:20;;;;;;;;;;;;;;;26.49;70.25;96084.09;609990;232;64912;-70
2021/12/11 03:56:48;;;;;;;;;;;;;;;26.49;68.41;96080.58;610460;232;66882;-70
2021/12/11 03:59:16;;;;;;;;;;;;;;;26.47;68.48;96083.63;610470;232;66786;-70
2021/12/11 04:01:48;;;;;;;;;;;;;;;26.46;71.07;96070.47;610488;232;65009;-69
2021/12/11 04:04:21;;;;;;;;;;;;;;;26.43;69.41;96063.83;610546;232;66696;-69
2021/12/11 04:06:49;;;;;;;;;;;;;;;26.44;69.80;96067.34;610459;232;64653;-71
2021/12/11 04:09:17;;;;;;;;;;;;;;;26.43;68.39;96077.30;610488;232;65025;-68
2021/12/11 04:11:45;;;;;;;;;;;;;;;26.43;69.15;96069.22;610450;232;64831;-68
2021/12/11 04:14:14;;;;;;;;;;;;;;;26.41;68.91;96062.58;610483;232;64793;-68
2021/12/11 04:16:42;;;;;;;;;;;;;;;26.42;70.55;96066.87;610536;232;62681;-68
2021/12/11 04:19:10;;;;;;;;;;;;;;;26.39;66.83;96075.61;610446;232;64710;-68
2021/12/11 04:21:38;;;;;;;;;;;;;;;26.39;70.06;96075.61;610495;232;66795;-68
2021/12/11 04:24:07;;;;;;;;;;;;;;;26.38;69.38;96074.80;610502;232;65027;-68
2021/12/11 04:26:34;;;;;;;;;;;;;;;26.39;70.47;96078.30;610453;232;66800;-68
2021/12/11 04:29:03;;;;;;;;;;;;;;;26.37;70.96;96057.07;610540;232;66399;-68
2021/12/11 04:31:32;;;;;;;;;;;;;;;26.35;69.85;96046.64;610468;232;64993;-68
2021/12/11 04:34:02;;;;;;;;;;;;;;;26.37;70.02;96045.52;610452;232;64636;-69
2021/12/11 04:36:31;;;;;;;;;;;;;;;26.33;69.53;96035.40;610437;232;66975;-69
2021/12/11 04:39:00;;;;;;;;;;;;;;;26.31;68.62;96037.63;610482;232;65875;-69
2021/12/11 04:41:33;;;;;;;;;;;;;;;26.32;66.34;96023.03;610469;232;66737;-69
2021/12/11 04:43:59;;;;;;;;;;;;;;;26.34;68.73;96018.11;610449;232;66769;-69
2021/12/11 04:46:27;;;;;;;;;;;;;;;26.33;68.75;96023.84;610435;232;62739;-69
2021/12/11 04:49:03;;;;;;;;;;;;;;;26.34;69.67;96038.88;610449;232;66977;-69
2021/12/11 04:51:31;;;;;;;;;;;;;;;26.32;70.49;96049.97;610291;232;64640;-69
2021/12/11 04:57:02;;;;;;;;;;;;;;;26.31;69.21;96040.32;609160;233;66459;-70
2021/12/11 05:04:46;;;;;;;;;;;;;;;26.28;69.79;96043.67;609098;233;67177;-70
2021/12/11 05:07:19;;;;;;;;;;;;;;;26.26;67.19;96035.13;608373;233;64498;-70
2021/12/11 05:09:41;;;;;;;;;;;;;;;26.28;67.10;96048.28;608438;233;65001;-70
2021/12/11 05:14:41;;;;;;;;;;;;;;;26.24;66.27;96053.52;609094;233;66833;-68
2021/12/11 05:17:10;;;;;;;;;;;;;;;26.25;67.73;96048.94;609084;233;62969;-68
2021/12/11 05:19:39;;;;;;;;;;;;;;;26.25;69.83;96060.49;609093;233;66794;-68
2021/12/11 05:22:10;;;;;;;;;;;;;;;26.21;68.17;96070.33;609154;233;46550;-68
2021/12/11 05:24:39;;;;;;;;;;;;;;;26.21;68.20;96064.95;609046;233;65035;-68
2021/12/11 05:27:08;;;;;;;;;;;;;;;26.19;70.32;96072.59;609079;233;66722;-68
2021/12/11 05:29:36;;;;;;;;;;;;;;;26.18;70.14;96081.77;609148;233;66859;-68
2021/12/11 05:32:05;;;;;;;;;;;;;;;26.15;66.50;96066.26;609047;233;64894;-68
2021/12/11 05:34:32;;;;;;;;;;;;;;;26.18;68.46;96070.98;609117;233;64442;-69
2021/12/11 05:37:00;;;;;;;;;;;;;;;26.19;67.95;96069.89;609134;233;64593;-68
2021/12/11 05:39:27;;;;;;;;;;;;;;;26.16;64.77;96046.28;609073;233;62978;-68
2021/12/11 05:41:55;;;;;;;;;;;;;;;26.16;68.81;96046.28;609157;233;64598;-68
2021/12/11 05:44:24;;;;;;;;;;;;;;;26.13;66.28;96050.42;609096;233;64283;-68
2021/12/11 05:46:52;;;;;;;;;;;;;;;26.13;70.06;96049.64;609087;233;65070;-68
2021/12/11 05:49:20;;;;;;;;;;;;;;;26.13;69.39;96031.57;609066;233;66815;-68
2021/12/11 05:51:48;;;;;;;;;;;;;;;26.11;67.11;96027.66;609073;233;67100;-68
2021/12/11 05:54:18;;;;;;;;;;;;;;;26.11;65.69;96016.89;609142;233;62981;-68
2021/12/11 05:56:46;;;;;;;;;;;;;;;26.10;65.39;95991.84;609205;233;66720;-68
2021/12/11 05:59:15;;;;;;;;;;;;;;;26.09;65.47;95995.66;609135;233;66880;-68
2021/12/11 06:01:44;;;;;;;;;;;;;;;26.08;68.88;95979.82;609176;233;65223;-68
2021/12/11 06:04:13;;;;;;;;;;;;;;;26.08;68.93;95982.52;608826;233;66880;-68
2021/12/11 06:06:41;;;;;;;;;;;;;;;26.08;64.87;96001.36;608945;233;66775;-68
2021/12/11 06:09:10;;;;;;;;;;;;;;;26.10;65.46;96007.22;609223;233;64935;-68
2021/12/11 06:11:38;;;;;;;;;;;;;;;26.10;65.06;96015.29;609153;233;66658;-69
2021/12/11 06:14:06;;;;;;;;;;;;;;;26.11;65.99;96030.34;609177;233;66798;-69
2021/12/11 06:16:34;;;;;;;;;;;;;;;26.10;66.01;96015.29;609123;233;64987;-69
2021/12/11 06:19:04;;;;;;;;;;;;;;;26.10;67.00;96009.91;609160;233;65087;-70
2021/12/11 06:21:33;;;;;;;;;;;;;;;26.11;69.36;95992.66;609151;233;64721;-70
2021/12/11 06:24:01;;;;;;;;;;;;;;;26.09;65.55;96014.51;609153;233;65121;-70
2021/12/11 06:26:28;;;;;;;;;;;;;;;26.10;66.88;96028.75;609138;233;66681;-70
2021/12/11 06:28:56;;;;;;;;;;;;;;;26.10;70.44;96018.77;609169;233;66851;-70
2021/12/11 06:31:23;;;;;;;;;;;;;;;26.10;69.07;96026.06;609154;233;65113;-69
2021/12/11 06:33:52;;;;;;;;;;;;;;;26.12;69.79;96045.37;609162;233;64469;-69
2021/12/11 06:36:21;;;;;;;;;;;;;;;26.11;70.67;96033.05;609173;233;66712;-70
2021/12/11 06:38:50;;;;;;;;;;;;;;;26.06;71.60;96047.48;609098;233;64861;-70
2021/12/11 06:41:19;;;;;;;;;;;;;;;26.05;70.68;96058.56;609134;233;64479;-69
2021/12/11 06:43:49;;;;;;;;;;;;;;;26.07;71.17;96078.66;608349;233;66870;-69
2021/12/11 06:46:17;;;;;;;;;;;;;;;26.06;68.45;96062.84;609107;233;63116;-69
2021/12/11 06:48:45;;;;;;;;;;;;;;;26.05;69.53;96055.86;609137;233;66897;-70
2021/12/11 06:51:12;;;;;;;;;;;;;;;26.06;68.09;96089.77;608962;233;66801;-71
2021/12/11 06:53:41;;;;;;;;;;;;;;;26.08;67.82;96082.95;609557;232;65034;-74
2021/12/11 06:56:10;;;;;;;;;;;;;;;26.11;66.83;96082.29;606195;232;64361;-71
2021/12/11 06:58:38;;;;;;;;;;;;;;;26.12;65.43;96089.24;599501;236;64411;-71
2021/12/11 07:01:07;;;;;;;;;;;;;;;26.11;68.99;96070.73;596526;238;65086;-71
2021/12/11 07:03:35;;;;;;;;;;;;;;;26.09;67.81;96070.27;599530;236;64712;-71
2021/12/11 07:06:04;;;;;;;;;;;;;;;26.11;67.95;96078.81;596406;238;64977;-71
2021/12/11 07:08:31;;;;;;;;;;;;;;;26.12;64.69;96080.38;599364;236;65275;-71
2021/12/11 07:11:00;;;;;;;;;;;;;;;26.13;67.73;96074.66;596486;238;66935;-72
2021/12/11 07:13:28;;;;;;;;;;;;;;;26.16;66.49;96088.59;599479;236;66497;-70
2021/12/11 07:16:01;;;;;;;;;;;;;;;26.15;69.28;96078.94;596411;238;63017;-66
2021/12/11 07:18:25;;;;;;;;;;;;;;;26.11;68.00;96078.81;599273;236;64292;-64
2021/12/11 07:20:53;;;;;;;;;;;;;;;26.12;62.52;96056.93;596387;238;66544;-67
2021/12/11 07:23:21;;;;;;;;;;;;;;;26.15;69.13;96033.95;599579;236;64992;-67
2021/12/11 07:25:54;;;;;;;;;;;;;;;26.16;66.14;96040.11;596323;238;44862;-59
2021/12/11 07:28:22;;;;;;;;;;;;;;;26.17;67.87;96030.94;599463;235;66513;-60
2021/12/11 07:30:50;;;;;;;;;;;;;;;26.16;64.99;96051.67;596462;238;62763;-60
2021/12/11 07:33:18;;;;;;;;;;;;;;;26.17;68.92;96057.87;599517;236;66927;-59
2021/12/11 07:35:46;;;;;;;;;;;;;;;26.18;69.18;96052.14;596428;238;66433;-60
2021/12/11 07:38:14;;;;;;;;;;;;;;;26.21;68.42;96043.40;599587;236;65054;-58
2021/12/11 07:40:46;;;;;;;;;;;;;;;26.19;70.16;96040.27;596429;238;66749;-59
2021/12/11 07:43:16;;;;;;;;;;;;;;;26.17;68.92;96015.56;599167;236;66636;-62
2021/12/11 07:45:43;;;;;;;;;;;;;;;26.15;64.52;96039.33;596433;238;65077;-63
2021/12/11 07:48:11;;;;;;;;;;;;;;;26.15;67.21;96041.24;599473;236;66395;-62
2021/12/11 07:50:39;;;;;;;;;;;;;;;26.18;66.46;96037.89;596481;238;64463;-63
2021/12/11 07:53:06;;;;;;;;;;;;;;;26.24;66.17;96037.35;599326;236;64927;-63
2021/12/11 07:55:35;;;;;;;;;;;;;;;26.26;65.14;96035.13;595625;238;67005;-66
2021/12/11 07:58:04;;;;;;;;;;;;;;;26.30;65.60;96040.64;598751;237;66947;-63
2021/12/11 08:00:32;;;;;;;;;;;;;;;26.38;61.27;96030.91;595681;238;64944;-65
2021/12/11 08:02:59;;;;;;;;;;;;;;;26.42;60.14;96031.84;599704;235;66960;-64
2021/12/11 08:05:28;;;;;;;;;;;;;;;26.44;61.22;96035.01;601865;235;67548;-64
2021/12/11 08:08:00;;;;;;;;;;;;;;;26.46;59.69;96043.52;601776;235;65256;-64
2021/12/11 08:10:25;;;;;;;;;;;;;;;26.48;59.41;96033.22;601597;235;66979;-65
2021/12/11 08:12:53;;;;;;;;;;;;;;;26.48;60.24;96020.53;601782;235;66598;-65
2021/12/11 08:15:20;;;;;;;;;;;;;;;26.48;58.90;96019.75;601728;235;64909;-65
2021/12/11 08:17:54;;;;;;;;;;;;;;;26.49;62.05;96027.52;601747;235;66755;-64
2021/12/11 08:20:17;;;;;;;;;;;;;;;26.49;58.57;96026.70;601531;235;67098;-64
2021/12/11 08:22:45;;;;;;;;;;;;;;;26.48;58.08;96044.77;600057;235;64892;-64
2021/12/11 08:25:12;;;;;;;;;;;;;;;26.49;60.22;96029.39;601705;234;66761;-64
2021/12/11 08:27:41;;;;;;;;;;;;;;;26.49;58.24;96026.70;601475;235;66661;-64
2021/12/11 08:30:11;;;;;;;;;;;;;;;26.48;58.25;96035.91;601885;235;45291;-65
2021/12/11 08:32:39;;;;;;;;;;;;;;;26.50;59.10;96023.69;601786;235;66950;-65
2021/12/11 08:35:09;;;;;;;;;;;;;;;26.50;58.85;96029.08;601819;235;64757;-65
2021/12/11 08:37:38;;;;;;;;;;;;;;;26.52;60.05;96040.34;601760;235;65075;-63
2021/12/11 08:40:07;;;;;;;;;;;;;;;26.51;59.81;96035.27;601798;235;64453;-63
2021/12/11 08:42:37;;;;;;;;;;;;;;;26.52;58.99;96031.48;601418;235;64650;-62
2021/12/11 08:45:09;;;;;;;;;;;;;;;26.51;58.34;96027.19;601748;235;65216;-64
2021/12/11 08:47:38;;;;;;;;;;;;;;;26.52;58.43;96020.70;601726;235;67224;-65
2021/12/11 08:50:07;;;;;;;;;;;;;;;26.55;57.40;96020.04;601730;235;64956;-65
2021/12/11 08:52:36;;;;;;;;;;;;;;;26.57;58.70;96031.25;601713;235;65054;-64
2021/12/11 08:55:05;;;;;;;;;;;;;;;26.60;57.90;96006.36;601758;235;69269;-64
2021/12/11 08:57:36;;;;;;;;;;;;;;;26.59;58.54;96006.69;601771;235;66921;-64
2021/12/11 09:00:08;;;;;;;;;;;;;;;26.61;57.58;96017.92;601739;235;65663;-69
2021/12/11 09:02:37;;;;;;;;;;;;;;;26.61;58.59;96034.09;600710;235;66779;-64
2021/12/11 09:05:06;;;;;;;;;;;;;;;26.61;58.42;96016.02;601570;235;64423;-71
2021/12/11 09:07:36;;;;;;;;;;;;;;;26.64;60.97;96007.27;601687;235;65035;-72
2021/12/11 09:10:08;;;;;;;;;;;;;;;26.66;58.94;96001.55;601738;235;66724;-71
2021/12/11 09:12:37;;;;;;;;;;;;;;;26.65;58.71;96000.73;600632;235;66820;-71
2021/12/11 09:15:11;;;;;;;;;;;;;;;26.66;59.17;95988.86;598377;235;65067;-71
2021/12/11 09:17:40;;;;;;;;;;;;;;;26.70;58.90;96002.45;600569;235;66949;-72
2021/12/11 09:20:12;;;;;;;;;;;;;;;26.71;59.28;95999.44;601551;235;64403;-75
2021/12/11 09:22:57;;;;;;;;;;;;;;;26.62;56.77;95996.02;601751;235;66353;-72
2021/12/11 09:25:35;;;;;;;;;;;;;;;26.72;60.22;96002.91;601763;235;66836;-70
2021/12/11 09:28:07;;;;;;;;;;;;;;;26.75;60.66;95988.77;601608;235;66553;-72
2021/12/11 09:30:42;;;;;;;;;;;;;;;26.74;61.40;95973.73;601784;235;64920;-71
2021/12/11 09:33:11;;;;;;;;;;;;;;;26.75;60.98;95977.98;601524;235;66953;-72
2021/12/11 09:35:40;;;;;;;;;;;;;;;26.77;61.69;95981.14;601675;235;64897;-71
2021/12/11 09:38:09;;;;;;;;;;;;;;;26.78;63.05;95994.27;601407;235;63046;-71
2021/12/11 09:40:41;;;;;;;;;;;;;;;26.78;61.47;95988.09;601805;235;64692;-67
2021/12/11 09:43:10;;;;;;;;;;;;;;;26.81;61.89;95976.64;601938;235;66857;-66
2021/12/11 09:45:39;;;;;;;;;;;;;;;26.81;59.56;95973.95;601104;235;65194;-64
2021/12/11 09:48:08;;;;;;;;;;;;;;;26.83;61.11;95968.23;601826;235;64539;-70
2021/12/11 09:50:45;;;;;;;;;;;;;;;26.86;62.04;95951.39;601781;235;66924;-66
2021/12/11 09:53:06;;;;;;;;;;;;;;;26.88;61.13;95946.46;601569;235;62885;-65
2021/12/11 09:55:37;;;;;;;;;;;;;;;26.87;61.29;95961.05;601985;235;64557;-63
2021/12/11 09:58:06;;;;;;;;;;;;;;;26.87;61.74;95944.87;602631;235;66751;-67
2021/12/11 10:00:35;;;;;;;;;;;;;;;26.82;62.89;95953.98;602611;235;64865;-65
2021/12/11 10:03:05;;;;;;;;;;;;;;;26.81;62.19;95943.52;602299;235;67246;-68
2021/12/11 10:05:36;;;;;;;;;;;;;;;26.78;59.21;95959.23;602624;235;67583;-68
2021/12/11 10:08:57;;;;;;;;;;;;;;;26.85;59.41;95949.83;602545;235;62784;-68
2021/12/11 10:10:37;;;;;;;;;;;;;;;26.88;60.33;95951.85;596600;235;67169;-68
2021/12/11 10:13:05;;;;;;;;;;;;;;;26.89;60.51;95938.02;602635;235;64712;-68
2021/12/11 10:15:35;;;;;;;;;;;;;;;26.90;60.73;95954.98;602479;235;65217;-68
2021/12/11 10:18:07;;;;;;;;;;;;;;;26.89;60.15;95950.72;602595;235;64604;-67
2021/12/11 10:20:38;;;;;;;;;;;;;;;26.88;59.96;95968.03;602393;235;64502;-68
2021/12/11 10:23:07;;;;;;;;;;;;;;;26.89;60.22;95964.98;602389;235;62722;-67
2021/12/11 10:25:37;;;;;;;;;;;;;;;26.89;59.14;95959.59;601918;235;66737;-72
2021/12/11 10:28:06;;;;;;;;;;;;;;;26.91;60.15;95964.66;602590;235;66934;-71
2021/12/11 10:30:35;;;;;;;;;;;;;;;26.93;60.37;95943.55;602620;235;62869;-72
2021/12/11 10:33:04;;;;;;;;;;;;;;;26.91;60.49;95951.96;602596;235;68820;-71
2021/12/11 10:35:33;;;;;;;;;;;;;;;26.92;60.16;95948.13;602636;235;66945;-71
2021/12/11 10:38:03;;;;;;;;;;;;;;;26.94;59.87;95934.33;602633;235;62690;-72
2021/12/11 10:40:33;;;;;;;;;;;;;;;26.95;59.80;95933.20;602609;235;66775;-72
2021/12/11 10:43:02;;;;;;;;;;;;;;;26.94;59.50;95940.50;602665;235;64314;-72
2021/12/11 10:45:30;;;;;;;;;;;;;;;26.95;60.61;95933.98;602458;235;65094;-71
2021/12/11 10:47:59;;;;;;;;;;;;;;;26.96;60.65;95932.09;602665;235;64766;-71
2021/12/11 10:50:37;;;;;;;;;;;;;;;27.00;60.61;95919.50;602591;235;64949;-71
2021/12/11 10:53:06;;;;;;;;;;;;;;;27.00;59.54;95920.28;602402;235;65061;-72
2021/12/11 10:55:34;;;;;;;;;;;;;;;27.01;60.21;95907.61;602475;235;66978;-71
2021/12/11 10:58:03;;;;;;;;;;;;;;;27.04;60.40;95941.17;601881;235;66629;-72
2021/12/11 11:00:35;;;;;;;;;;;;;;;27.02;60.81;95919.95;601818;235;64544;-72
2021/12/11 11:03:06;;;;;;;;;;;;;;;27.01;60.00;95923.79;601594;235;66929;-71
2021/12/11 11:05:34;;;;;;;;;;;;;;;27.01;59.28;95923.79;601906;235;66846;-71
2021/12/11 11:08:02;;;;;;;;;;;;;;;27.00;59.28;95933.77;601910;235;64879;-71
2021/12/11 11:10:31;;;;;;;;;;;;;;;27.01;59.95;95913.00;601897;235;66763;-71
2021/12/11 11:13:00;;;;;;;;;;;;;;;27.03;59.05;95926.91;601874;235;66807;-71
2021/12/11 11:15:28;;;;;;;;;;;;;;;27.04;60.76;95914.20;601860;235;65045;-72
2021/12/11 11:17:56;;;;;;;;;;;;;;;27.04;60.41;95912.33;601890;235;65134;-71
2021/12/11 11:20:31;;;;;;;;;;;;;;;27.04;60.91;95898.84;601878;235;64569;-72
2021/12/11 11:22:59;;;;;;;;;;;;;;;27.08;59.39;95901.64;601873;235;66102;-73
2021/12/11 11:25:28;;;;;;;;;;;;;;;27.06;60.11;95899.27;601846;235;66906;-72
2021/12/11 11:27:57;;;;;;;;;;;;;;;27.06;58.79;95893.87;601808;235;66925;-72
2021/12/11 11:30:28;;;;;;;;;;;;;;;27.07;58.89;95883.91;601858;235;64955;-72
2021/12/11 11:32:56;;;;;;;;;;;;;;;27.08;60.16;95888.16;601964;235;66713;-72
2021/12/11 11:35:25;;;;;;;;;;;;;;;27.10;59.53;95869.73;601907;235;64112;-72
2021/12/11 11:37:54;;;;;;;;;;;;;;;27.10;59.31;95867.05;601867;235;65146;-72
2021/12/11 11:40:26;;;;;;;;;;;;;;;27.10;59.74;95872.44;601878;235;66732;-72
2021/12/11 11:42:54;;;;;;;;;;;;;;;27.12;59.24;95859.38;601846;235;66413;-72
2021/12/11 11:45:21;;;;;;;;;;;;;;;27.11;59.20;95874.78;601953;235;62739;-72
2021/12/11 11:47:50;;;;;;;;;;;;;;;27.14;60.78;95868.70;601888;235;64177;-71
2021/12/11 11:50:19;;;;;;;;;;;;;;;27.12;58.70;95852.09;601897;235;66423;-67
2021/12/11 11:52:47;;;;;;;;;;;;;;;27.15;61.13;95864.13;601818;235;62805;-67
2021/12/11 11:55:25;;;;;;;;;;;;;;;27.14;59.03;95860.61;601900;235;64326;-67
2021/12/11 11:57:54;;;;;;;;;;;;;;;27.14;59.09;95841.73;602552;235;66513;-68
2021/12/11 12:00:26;;;;;;;;;;;;;;;27.15;58.50;95839.84;602682;235;65152;-68
2021/12/11 12:02:53;;;;;;;;;;;;;;;27.15;59.25;95850.64;602544;235;66860;-69
2021/12/11 12:05:21;;;;;;;;;;;;;;;27.16;59.09;95844.91;602614;235;66928;-68
2021/12/11 12:07:49;;;;;;;;;;;;;;;27.16;58.92;95823.34;602619;235;64912;-69
2021/12/11 12:10:17;;;;;;;;;;;;;;;27.18;59.65;95828.41;602592;235;66790;-68
2021/12/11 12:12:45;;;;;;;;;;;;;;;27.16;58.68;95834.13;602681;235;66667;-68
2021/12/11 12:15:14;;;;;;;;;;;;;;;27.17;58.66;95838.42;602650;235;64819;-68
2021/12/11 12:17:41;;;;;;;;;;;;;;;27.20;59.21;95826.14;602627;235;64547;-66
2021/12/11 12:20:10;;;;;;;;;;;;;;;27.20;59.24;95818.05;602658;235;64406;-67
2021/12/11 12:22:41;;;;;;;;;;;;;;;27.19;58.72;95806.48;602689;235;46318;-68
2021/12/11 12:25:09;;;;;;;;;;;;;;;27.19;59.17;95811.88;602671;235;66712;-68
2021/12/11 12:27:37;;;;;;;;;;;;;;;27.20;59.40;95808.06;602622;235;64566;-68
2021/12/11 12:30:06;;;;;;;;;;;;;;;27.21;58.93;95836.59;602609;235;63049;-67
2021/12/11 12:32:36;;;;;;;;;;;;;;;27.21;59.31;95836.59;602480;235;64979;-67
2021/12/11 12:35:05;;;;;;;;;;;;;;;27.22;59.47;95823.89;602566;235;64539;-67
2021/12/11 12:37:33;;;;;;;;;;;;;;;27.21;59.23;95839.30;602106;235;64919;-67
2021/12/11 12:40:01;;;;;;;;;;;;;;;27.21;59.36;95860.09;602642;235;66957;-68
2021/12/11 12:42:35;;;;;;;;;;;;;;;27.23;59.40;95853.23;602626;235;66775;-67
2021/12/11 12:45:01;;;;;;;;;;;;;;;27.22;59.47;95865.13;602546;235;64830;-68
2021/12/11 12:47:30;;;;;;;;;;;;;;;27.22;59.12;95850.86;602567;235;64778;-67
2021/12/11 12:50:00;;;;;;;;;;;;;;;27.23;60.12;95844.36;602613;235;67536;-68
2021/12/11 12:52:28;;;;;;;;;;;;;;;27.23;59.00;95841.66;602674;235;64869;-68
2021/12/11 12:54:57;;;;;;;;;;;;;;;27.25;59.39;95841.31;602494;235;67024;-68
2021/12/11 12:57:28;;;;;;;;;;;;;;;27.25;59.78;95830.52;602595;235;66839;-68
2021/12/11 13:00:06;;;;;;;;;;;;;;;27.25;59.66;95835.91;602622;235;62876;-68
2021/12/11 13:02:36;;;;;;;;;;;;;;;27.25;59.39;95842.09;602382;235;66777;-67
2021/12/11 13:05:05;;;;;;;;;;;;;;;27.28;59.87;95833.31;602604;235;66829;-67
2021/12/11 13:07:34;;;;;;;;;;;;;;;27.28;59.87;95841.41;602527;235;64906;-67
2021/12/11 13:10:03;;;;;;;;;;;;;;;27.29;59.69;95847.61;602635;235;66958;-67
2021/12/11 13:12:34;;;;;;;;;;;;;;;27.28;59.87;95848.72;602631;235;66488;-67